createdAt,value
2022-10-09T00:00:11.325Z,99.99
2022-10-09T00:01:11.321Z,99.99
2022-10-09T00:02:11.339Z,99.99
2022-10-09T00:03:12.110Z,99.99
2022-10-09T00:04:11.262Z,99.99
2022-10-09T00:05:11.404Z,99.99
2022-10-09T00:06:11.253Z,99.99
2022-10-09T00:07:12.114Z,99.99
2022-10-09T00:08:11.404Z,99.99
2022-10-09T00:09:11.242Z,99.99
2022-10-09T00:10:11.232Z,99.99
2022-10-09T00:11:11.553Z,99.99
2022-10-09T00:12:11.735Z,99.99
2022-10-09T00:13:11.162Z,99.99
2022-10-09T00:14:11.163Z,99.99
2022-10-09T00:15:11.183Z,99.99
2022-10-09T00:16:12.277Z,99.99
2022-10-09T00:17:11.184Z,99.99
2022-10-09T00:18:11.093Z,99.99
2022-10-09T00:19:11.101Z,99.99
2022-10-09T00:20:11.069Z,99.99
2022-10-09T00:21:12.306Z,99.99
2022-10-09T00:22:11.404Z,99.99
2022-10-09T00:23:11.015Z,99.99
2022-10-09T00:24:11.067Z,99.99
2022-10-09T00:25:10.974Z,99.99
2022-10-09T00:26:10.975Z,99.99
2022-10-09T00:27:10.974Z,99.99
2022-10-09T00:28:11.048Z,99.99
2022-10-09T00:29:12.047Z,99.99
2022-10-09T00:30:10.935Z,99.99
2022-10-09T00:31:11.013Z,99.99
2022-10-09T00:32:10.896Z,99.99
2022-10-09T00:33:10.994Z,99.99
2022-10-09T00:34:10.964Z,99.99
2022-10-09T00:35:10.882Z,99.99
2022-10-09T00:36:10.871Z,99.99
2022-10-09T00:37:10.815Z,99.99
2022-10-09T00:38:10.816Z,99.99
2022-10-09T00:39:10.815Z,99.99
2022-10-09T00:40:10.801Z,99.99
2022-10-09T00:41:10.775Z,99.99
2022-10-09T00:42:12.208Z,99.99
2022-10-09T00:43:10.783Z,99.99
2022-10-09T00:44:10.757Z,99.99
2022-10-09T00:45:10.737Z,99.99
2022-10-09T00:46:11.804Z,99.99
2022-10-09T00:47:10.839Z,99.99
2022-10-09T00:48:11.756Z,99.99
2022-10-09T00:49:10.696Z,99.99
2022-10-09T00:50:10.692Z,99.99
2022-10-09T00:51:10.809Z,99.99
2022-10-09T00:52:10.649Z,99.99
2022-10-09T00:53:10.670Z,99.99
2022-10-09T00:54:10.661Z,99.99
2022-10-09T00:55:10.607Z,99.99
2022-10-09T00:56:10.608Z,99.99
2022-10-09T00:57:10.595Z,99.99
2022-10-09T00:58:10.548Z,99.99
2022-10-09T00:59:10.565Z,99.99
2022-10-09T01:00:10.539Z,99.99
2022-10-09T01:01:10.630Z,99.99
2022-10-09T01:02:10.656Z,99.99
2022-10-09T01:03:10.471Z,99.99
2022-10-09T01:04:10.501Z,99.99
2022-10-09T01:05:10.498Z,99.99
2022-10-09T01:06:10.451Z,99.99
2022-10-09T01:07:10.511Z,99.99
2022-10-09T01:08:10.432Z,99.99
2022-10-09T01:09:10.397Z,99.99
2022-10-09T01:10:10.468Z,99.99
2022-10-09T01:11:10.471Z,99.99
2022-10-09T01:12:10.409Z,99.99
2022-10-09T01:13:11.409Z,99.99
2022-10-09T01:14:11.294Z,99.99
2022-10-09T01:15:10.326Z,99.99
2022-10-09T01:16:10.368Z,99.99
2022-10-09T01:17:10.385Z,99.99
2022-10-09T01:18:10.375Z,99.99
2022-10-09T01:19:10.284Z,99.99
2022-10-09T01:20:11.248Z,99.99
2022-10-09T01:21:10.250Z,99.99
2022-10-09T01:22:10.341Z,99.99
2022-10-09T01:23:10.323Z,99.99
2022-10-09T01:24:10.212Z,99.99
2022-10-09T01:25:10.210Z,99.99
2022-10-09T01:26:10.727Z,99.99
2022-10-09T01:27:10.191Z,99.99
2022-10-09T01:28:10.262Z,99.99
2022-10-09T01:29:10.202Z,99.99
2022-10-09T01:30:10.150Z,99.99
2022-10-09T01:31:10.193Z,99.99
2022-10-09T01:32:10.247Z,99.99
2022-10-09T01:33:11.097Z,99.99
2022-10-09T01:34:10.927Z,99.99
2022-10-09T01:35:10.090Z,99.99
2022-10-09T01:36:10.344Z,99.99
2022-10-09T01:37:10.419Z,99.99
2022-10-09T01:38:10.057Z,99.99
2022-10-09T01:39:10.182Z,99.99
2022-10-09T01:40:10.024Z,99.99
2022-10-09T01:41:10.033Z,99.99
2022-10-09T01:42:10.104Z,99.99
2022-10-09T01:43:10.419Z,99.99
2022-10-09T01:44:10.003Z,99.99
2022-10-09T01:45:09.971Z,99.99
2022-10-09T01:46:09.985Z,99.99
2022-10-09T01:47:09.953Z,99.99
2022-10-09T01:48:09.897Z,99.99
2022-10-09T01:49:11.023Z,99.99
2022-10-09T01:50:10.008Z,99.99
2022-10-09T01:51:09.874Z,99.99
2022-10-09T01:52:09.850Z,99.99
2022-10-09T01:53:09.843Z,99.99
2022-10-09T01:54:10.017Z,99.99
2022-10-09T01:55:09.865Z,99.99
2022-10-09T01:56:09.816Z,99.99
2022-10-09T01:57:09.815Z,99.99
2022-10-09T01:58:09.957Z,99.99
2022-10-09T01:59:14.861Z,99.99
2022-10-09T02:00:10.916Z,99.99
2022-10-09T02:01:10.460Z,99.99
2022-10-09T02:02:10.184Z,99.99
2022-10-09T02:03:09.795Z,99.99
2022-10-09T02:04:09.716Z,99.99
2022-10-09T02:05:09.943Z,99.99
2022-10-09T02:06:09.676Z,99.99
2022-10-09T02:07:09.684Z,99.99
2022-10-09T02:08:09.673Z,99.99
2022-10-09T02:09:09.630Z,99.99
2022-10-09T02:10:09.659Z,99.99
2022-10-09T02:11:09.667Z,99.99
2022-10-09T02:12:10.720Z,99.99
2022-10-09T02:13:09.579Z,99.99
2022-10-09T02:14:10.667Z,99.99
2022-10-09T02:15:10.627Z,99.99
2022-10-09T02:16:09.714Z,99.99
2022-10-09T02:17:09.879Z,99.99
2022-10-09T02:18:09.528Z,99.99
2022-10-09T02:19:09.487Z,99.99
2022-10-09T02:20:09.627Z,99.99
2022-10-09T02:21:09.517Z,99.99
2022-10-09T02:22:09.471Z,99.99
2022-10-09T02:23:09.509Z,99.99
2022-10-09T02:24:09.471Z,99.99
2022-10-09T02:25:09.458Z,99.99
2022-10-09T02:26:09.479Z,99.99
2022-10-09T02:27:10.111Z,99.99
2022-10-09T02:28:09.658Z,99.99
2022-10-09T02:29:09.406Z,99.99
2022-10-09T02:30:09.488Z,99.99
2022-10-09T02:31:09.749Z,99.99
2022-10-09T02:32:09.437Z,99.99
2022-10-09T02:33:09.596Z,99.99
2022-10-09T02:34:10.087Z,99.99
2022-10-09T02:35:09.383Z,99.99
2022-10-09T02:36:09.311Z,99.99
2022-10-09T02:37:09.317Z,99.99
2022-10-09T02:38:09.288Z,99.99
2022-10-09T02:39:09.267Z,99.99
2022-10-09T02:40:10.897Z,99.99
2022-10-09T02:41:10.127Z,99.99
2022-10-09T02:42:09.248Z,99.99
2022-10-09T02:43:09.229Z,99.99
2022-10-09T02:44:09.283Z,99.99
2022-10-09T02:45:09.198Z,99.99
2022-10-09T02:46:09.189Z,99.99
2022-10-09T02:47:09.153Z,99.99
2022-10-09T02:48:09.142Z,99.99
2022-10-09T02:49:09.121Z,99.99
2022-10-09T02:50:09.121Z,99.99
2022-10-09T02:51:09.193Z,99.99
2022-10-09T02:52:10.114Z,99.99
2022-10-09T02:53:09.104Z,99.99
2022-10-09T02:54:09.143Z,99.99
2022-10-09T02:55:09.673Z,99.99
2022-10-09T02:56:09.150Z,99.99
2022-10-09T02:57:09.129Z,99.99
2022-10-09T02:58:09.021Z,99.99
2022-10-09T02:59:09.001Z,99.99
2022-10-09T03:00:09.002Z,99.99
2022-10-09T03:01:09.104Z,99.99
2022-10-09T03:02:09.016Z,99.99
2022-10-09T03:03:09.205Z,99.99
2022-10-09T03:04:09.962Z,99.99
2022-10-09T03:05:09.026Z,99.99
2022-10-09T03:06:08.947Z,99.99
2022-10-09T03:07:08.922Z,99.99
2022-10-09T03:08:08.912Z,99.99
2022-10-09T03:09:09.004Z,99.99
2022-10-09T03:10:08.856Z,99.99
2022-10-09T03:11:08.824Z,99.99
2022-10-09T03:12:08.864Z,99.99
2022-10-09T03:13:08.804Z,99.99
2022-10-09T03:14:08.864Z,99.99
2022-10-09T03:15:08.806Z,99.99
2022-10-09T03:16:08.870Z,99.99
2022-10-09T03:17:08.875Z,99.99
2022-10-09T03:18:08.746Z,99.99
2022-10-09T03:19:08.769Z,99.99
2022-10-09T03:20:09.084Z,99.99
2022-10-09T03:21:09.874Z,99.99
2022-10-09T03:22:08.786Z,99.99
2022-10-09T03:23:08.693Z,99.99
2022-10-09T03:24:08.695Z,99.99
2022-10-09T03:25:08.769Z,99.99
2022-10-09T03:26:08.651Z,99.99
2022-10-09T03:27:08.665Z,99.99
2022-10-09T03:28:08.744Z,99.99
2022-10-09T03:29:08.864Z,99.99
2022-10-09T03:30:09.516Z,99.99
2022-10-09T03:31:09.377Z,99.99
2022-10-09T03:32:08.655Z,99.99
2022-10-09T03:33:09.840Z,99.99
2022-10-09T03:34:08.538Z,99.99
2022-10-09T03:35:08.537Z,99.99
2022-10-09T03:36:08.530Z,99.99
2022-10-09T03:37:08.523Z,99.99
2022-10-09T03:38:08.558Z,99.99
2022-10-09T03:39:08.548Z,99.99
2022-10-09T03:40:08.562Z,99.99
2022-10-09T03:41:08.527Z,99.99
2022-10-09T03:42:08.466Z,99.99
2022-10-09T03:43:08.476Z,99.99
2022-10-09T03:44:08.422Z,99.99
2022-10-09T03:45:08.483Z,99.99
2022-10-09T03:46:08.547Z,99.99
2022-10-09T03:47:08.408Z,99.99
2022-10-09T03:48:08.399Z,99.99
2022-10-09T03:49:09.840Z,99.99
2022-10-09T03:50:08.346Z,99.99
2022-10-09T03:51:08.337Z,99.99
2022-10-09T03:52:09.448Z,99.99
2022-10-09T03:53:08.328Z,99.99
2022-10-09T03:54:08.299Z,99.99
2022-10-09T03:55:08.321Z,99.99
2022-10-09T03:56:08.352Z,99.99
2022-10-09T03:57:08.398Z,99.99
2022-10-09T03:58:08.570Z,99.99
2022-10-09T03:59:08.428Z,99.99
2022-10-09T04:00:08.227Z,99.99
2022-10-09T04:01:08.362Z,99.99
2022-10-09T04:02:08.271Z,99.99
2022-10-09T04:03:08.220Z,99.99
2022-10-09T04:04:08.228Z,99.99
2022-10-09T04:05:08.209Z,99.99
2022-10-09T04:06:08.128Z,99.99
2022-10-09T04:07:08.147Z,99.99
2022-10-09T04:08:08.267Z,99.99
2022-10-09T04:09:08.192Z,99.99
2022-10-09T04:10:08.261Z,99.99
2022-10-09T04:11:08.061Z,99.99
2022-10-09T04:12:08.072Z,99.99
2022-10-09T04:13:08.040Z,99.99
2022-10-09T04:14:08.028Z,99.99
2022-10-09T04:15:08.011Z,99.99
2022-10-09T04:16:09.236Z,99.99
2022-10-09T04:17:07.999Z,99.99
2022-10-09T04:18:07.999Z,99.99
2022-10-09T04:19:08.024Z,99.99
2022-10-09T04:20:07.982Z,99.99
2022-10-09T04:21:07.978Z,99.99
2022-10-09T04:22:08.577Z,99.99
2022-10-09T04:23:08.053Z,99.99
2022-10-09T04:24:08.263Z,99.99
2022-10-09T04:25:08.029Z,99.99
2022-10-09T04:26:08.670Z,99.99
2022-10-09T04:27:07.883Z,99.99
2022-10-09T04:28:07.967Z,99.99
2022-10-09T04:29:07.855Z,99.99
2022-10-09T04:30:07.847Z,99.99
2022-10-09T04:31:07.882Z,99.99
2022-10-09T04:32:07.827Z,99.99
2022-10-09T04:33:11.987Z,99.99
2022-10-09T04:34:08.831Z,99.99
2022-10-09T04:35:08.924Z,99.99
2022-10-09T04:36:08.426Z,99.99
2022-10-09T04:37:07.844Z,99.99
2022-10-09T04:38:08.022Z,99.99
2022-10-09T04:39:07.732Z,99.99
2022-10-09T04:40:07.729Z,99.99
2022-10-09T04:41:07.703Z,99.99
2022-10-09T04:42:07.696Z,99.99
2022-10-09T04:43:07.718Z,99.99
2022-10-09T04:44:07.651Z,99.99
2022-10-09T04:45:07.655Z,99.99
2022-10-09T04:46:07.739Z,99.99
2022-10-09T04:47:11.328Z,99.99
2022-10-09T04:48:07.938Z,99.99
2022-10-09T04:49:07.625Z,99.99
2022-10-09T04:50:07.734Z,99.99
2022-10-09T04:51:08.014Z,99.99
2022-10-09T04:52:07.563Z,99.99
2022-10-09T04:53:07.603Z,99.99
2022-10-09T04:54:07.514Z,99.99
2022-10-09T04:55:07.527Z,99.99
2022-10-09T04:56:07.509Z,99.99
2022-10-09T04:57:07.475Z,99.99
2022-10-09T04:58:07.534Z,99.99
2022-10-09T04:59:07.471Z,99.99
2022-10-09T05:00:07.473Z,99.99
2022-10-09T05:01:07.783Z,99.99
2022-10-09T05:02:07.499Z,99.99
2022-10-09T05:03:07.414Z,99.99
2022-10-09T05:04:07.415Z,99.99
2022-10-09T05:05:07.516Z,99.99
2022-10-09T05:06:07.427Z,99.99
2022-10-09T05:07:07.408Z,99.99
2022-10-09T05:08:07.405Z,99.99
2022-10-09T05:09:07.350Z,99.99
2022-10-09T05:10:07.350Z,99.99
2022-10-09T05:11:07.310Z,99.99
2022-10-09T05:12:07.344Z,99.99
2022-10-09T05:13:08.342Z,99.99
2022-10-09T05:14:07.343Z,99.99
2022-10-09T05:15:07.270Z,99.99
2022-10-09T05:16:07.307Z,99.99
2022-10-09T05:17:14.289Z,99.99
2022-10-09T05:18:08.253Z,99.99
2022-10-09T05:19:07.227Z,99.99
2022-10-09T05:20:07.214Z,99.99
2022-10-09T05:21:07.260Z,99.99
2022-10-09T05:22:07.238Z,99.99
2022-10-09T05:23:07.227Z,99.99
2022-10-09T05:24:10.193Z,99.99
2022-10-09T05:25:07.136Z,99.99
2022-10-09T05:26:07.146Z,99.99
2022-10-09T05:27:07.101Z,99.99
2022-10-09T05:28:07.195Z,99.99
2022-10-09T05:29:07.077Z,99.99
2022-10-09T05:30:07.050Z,99.99
2022-10-09T05:31:07.093Z,99.99
2022-10-09T05:32:07.089Z,99.99
2022-10-09T05:33:07.048Z,99.99
2022-10-09T05:34:07.068Z,99.99
2022-10-09T05:35:06.997Z,99.99
2022-10-09T05:36:06.994Z,99.99
2022-10-09T05:37:07.010Z,99.99
2022-10-09T05:38:06.978Z,99.99
2022-10-09T05:39:06.939Z,99.99
2022-10-09T05:40:07.013Z,99.99
2022-10-09T05:41:06.993Z,99.99
2022-10-09T05:42:07.028Z,99.99
2022-10-09T05:43:07.085Z,99.99
2022-10-09T05:44:06.889Z,99.99
2022-10-09T05:45:06.869Z,99.99
2022-10-09T05:46:07.013Z,99.99
2022-10-09T05:47:06.972Z,99.99
2022-10-09T05:48:06.929Z,99.99
2022-10-09T05:49:06.895Z,99.99
2022-10-09T05:50:06.800Z,99.99
2022-10-09T05:51:06.892Z,99.99
2022-10-09T05:52:06.832Z,99.99
2022-10-09T05:53:06.801Z,99.99
2022-10-09T05:54:06.770Z,99.99
2022-10-09T05:55:06.720Z,99.99
2022-10-09T05:56:06.749Z,99.99
2022-10-09T05:57:06.796Z,99.99
2022-10-09T05:58:06.798Z,99.99
2022-10-09T05:59:06.787Z,99.99
2022-10-09T06:00:06.839Z,99.99
2022-10-09T06:01:06.797Z,99.99
2022-10-09T06:02:06.747Z,99.99
2022-10-09T06:03:06.791Z,99.99
2022-10-09T06:04:06.853Z,99.99
2022-10-09T06:05:06.697Z,99.99
2022-10-09T06:06:06.631Z,99.99
2022-10-09T06:07:06.591Z,99.99
2022-10-09T06:08:06.583Z,99.99
2022-10-09T06:09:06.592Z,99.99
2022-10-09T06:10:06.543Z,99.99
2022-10-09T06:11:06.527Z,99.99
2022-10-09T06:12:06.572Z,99.99
2022-10-09T06:13:06.492Z,99.99
2022-10-09T06:14:06.494Z,99.99
2022-10-09T06:15:06.507Z,99.99
2022-10-09T06:16:06.472Z,99.99
2022-10-09T06:17:06.582Z,99.99
2022-10-09T06:18:06.486Z,99.99
2022-10-09T06:19:07.511Z,99.99
2022-10-09T06:20:06.462Z,99.99
2022-10-09T06:21:06.395Z,99.99
2022-10-09T06:22:06.424Z,99.99
2022-10-09T06:23:06.400Z,99.99
2022-10-09T06:24:06.388Z,99.99
2022-10-09T06:25:06.448Z,99.99
2022-10-09T06:26:06.379Z,99.99
2022-10-09T06:27:06.331Z,99.99
2022-10-09T06:28:06.382Z,99.99
2022-10-09T06:29:06.346Z,99.99
2022-10-09T06:30:06.307Z,99.99
2022-10-09T06:31:06.354Z,99.99
2022-10-09T06:32:06.308Z,99.99
2022-10-09T06:33:06.341Z,99.99
2022-10-09T06:34:06.251Z,99.99
2022-10-09T06:35:06.309Z,99.99
2022-10-09T06:36:10.302Z,99.99
2022-10-09T06:37:06.204Z,99.99
2022-10-09T06:38:06.290Z,99.99
2022-10-09T06:39:06.200Z,99.99
2022-10-09T06:40:06.186Z,99.99
2022-10-09T06:41:06.174Z,99.99
2022-10-09T06:42:06.162Z,99.99
2022-10-09T06:43:06.125Z,99.99
2022-10-09T06:44:06.182Z,99.99
2022-10-09T06:45:06.134Z,99.99
2022-10-09T06:46:06.236Z,99.99
2022-10-09T06:47:06.096Z,99.99
2022-10-09T06:48:06.063Z,99.99
2022-10-09T06:49:06.078Z,99.99
2022-10-09T06:50:06.077Z,99.99
2022-10-09T06:51:06.018Z,99.99
2022-10-09T06:52:06.029Z,99.99
2022-10-09T06:53:06.015Z,99.99
2022-10-09T06:54:06.024Z,99.99
2022-10-09T06:55:05.999Z,99.99
2022-10-09T06:56:06.059Z,99.99
2022-10-09T06:57:06.057Z,99.99
2022-10-09T06:58:05.972Z,99.99
2022-10-09T06:59:06.018Z,99.99
2022-10-09T07:00:05.964Z,99.99
2022-10-09T07:01:06.009Z,99.99
2022-10-09T07:02:06.113Z,99.99
2022-10-09T07:03:05.911Z,99.99
2022-10-09T07:04:05.910Z,99.99
2022-10-09T07:05:05.919Z,99.99
2022-10-09T07:06:05.846Z,99.99
2022-10-09T07:07:05.887Z,99.99
2022-10-09T07:08:05.799Z,99.99
2022-10-09T07:09:05.844Z,99.99
2022-10-09T07:10:05.907Z,99.99
2022-10-09T07:11:05.787Z,99.99
2022-10-09T07:12:05.823Z,99.99
2022-10-09T07:13:05.757Z,99.99
2022-10-09T07:14:05.727Z,99.99
2022-10-09T07:15:05.746Z,99.99
2022-10-09T07:16:05.757Z,99.99
2022-10-09T07:17:05.698Z,99.99
2022-10-09T07:18:05.726Z,99.99
2022-10-09T07:19:05.680Z,99.99
2022-10-09T07:20:05.681Z,99.99
2022-10-09T07:21:05.670Z,99.99
2022-10-09T07:22:05.707Z,99.99
2022-10-09T07:23:05.602Z,99.99
2022-10-09T07:24:05.589Z,99.99
2022-10-09T07:25:06.430Z,99.99
2022-10-09T07:26:06.290Z,99.99
2022-10-09T07:27:05.748Z,99.99
2022-10-09T07:28:05.621Z,99.99
2022-10-09T07:29:05.557Z,99.99
2022-10-09T07:30:05.553Z,99.99
2022-10-09T07:31:05.607Z,99.99
2022-10-09T07:32:10.196Z,99.99
2022-10-09T07:33:06.570Z,99.99
2022-10-09T07:34:05.536Z,99.99
2022-10-09T07:35:05.478Z,99.99
2022-10-09T07:36:06.924Z,99.99
2022-10-09T07:37:06.306Z,99.99
2022-10-09T07:38:05.600Z,99.99
2022-10-09T07:39:05.411Z,99.99
2022-10-09T07:40:05.390Z,99.99
2022-10-09T07:41:05.382Z,99.99
2022-10-09T07:42:05.362Z,99.99
2022-10-09T07:43:05.442Z,99.99
2022-10-09T07:44:05.412Z,99.99
2022-10-09T07:45:05.429Z,99.99
2022-10-09T07:46:05.698Z,99.99
2022-10-09T07:47:05.434Z,99.99
2022-10-09T07:48:05.314Z,99.99
2022-10-09T07:49:05.291Z,99.99
2022-10-09T07:50:05.261Z,99.99
2022-10-09T07:51:06.483Z,99.99
2022-10-09T07:52:05.301Z,99.99
2022-10-09T07:53:05.281Z,99.99
2022-10-09T07:54:05.263Z,99.99
2022-10-09T07:55:05.246Z,99.99
2022-10-09T07:56:05.192Z,99.99
2022-10-09T07:57:05.208Z,99.99
2022-10-09T07:58:05.153Z,99.99
2022-10-09T07:59:05.187Z,99.99
2022-10-09T08:00:05.236Z,99.99
2022-10-09T08:01:05.155Z,99.99
2022-10-09T08:02:05.180Z,99.99
2022-10-09T08:03:05.226Z,99.99
2022-10-09T08:04:05.116Z,99.99
2022-10-09T08:05:05.084Z,99.99
2022-10-09T08:06:05.134Z,99.99
2022-10-09T08:07:05.066Z,99.99
2022-10-09T08:08:05.074Z,99.99
2022-10-09T08:09:05.063Z,99.99
2022-10-09T08:10:05.019Z,99.99
2022-10-09T08:11:05.003Z,99.99
2022-10-09T08:12:04.987Z,99.99
2022-10-09T08:13:05.005Z,99.99
2022-10-09T08:14:04.976Z,99.99
2022-10-09T08:15:04.957Z,99.99
2022-10-09T08:16:05.000Z,99.99
2022-10-09T08:17:04.999Z,99.99
2022-10-09T08:18:04.900Z,99.99
2022-10-09T08:19:04.923Z,99.99
2022-10-09T08:20:04.856Z,99.99
2022-10-09T08:21:04.845Z,99.99
2022-10-09T08:22:04.907Z,99.99
2022-10-09T08:23:04.845Z,99.99
2022-10-09T08:24:04.859Z,99.99
2022-10-09T08:25:04.830Z,99.99
2022-10-09T08:26:04.833Z,99.99
2022-10-09T08:27:04.817Z,99.99
2022-10-09T08:28:04.904Z,99.99
2022-10-09T08:29:04.800Z,99.99
2022-10-09T08:30:04.763Z,99.99
2022-10-09T08:31:04.825Z,99.99
2022-10-09T08:32:04.727Z,99.99
2022-10-09T08:33:04.768Z,99.99
2022-10-09T08:34:04.719Z,99.99
2022-10-09T08:35:04.708Z,99.99
2022-10-09T08:36:04.669Z,99.99
2022-10-09T08:37:04.687Z,99.99
2022-10-09T08:38:04.735Z,99.99
2022-10-09T08:39:05.455Z,99.99
2022-10-09T08:40:04.607Z,99.99
2022-10-09T08:41:04.635Z,99.99
2022-10-09T08:42:04.680Z,99.99
2022-10-09T08:43:04.636Z,99.99
2022-10-09T08:44:04.565Z,99.99
2022-10-09T08:45:04.583Z,99.99
2022-10-09T08:46:04.586Z,99.99
2022-10-09T08:47:04.512Z,99.99
2022-10-09T08:48:04.534Z,99.99
2022-10-09T08:49:04.546Z,99.99
2022-10-09T08:50:04.532Z,99.99
2022-10-09T08:51:04.506Z,99.99
2022-10-09T08:52:04.464Z,99.99
2022-10-09T08:53:04.444Z,99.99
2022-10-09T08:54:04.442Z,99.70
2022-10-09T08:55:04.841Z,99.80
2022-10-09T08:56:04.436Z,99.35
2022-10-09T08:57:04.399Z,98.63
2022-10-09T08:58:04.387Z,99.15
2022-10-09T08:59:04.436Z,99.45
2022-10-09T09:00:04.378Z,99.25
2022-10-09T09:01:04.497Z,99.20
2022-10-09T09:02:04.398Z,98.90
2022-10-09T09:03:04.426Z,98.07
2022-10-09T09:04:04.327Z,98.07
2022-10-09T09:05:04.293Z,97.87
2022-10-09T09:06:04.285Z,97.56
2022-10-09T09:07:04.473Z,97.25
2022-10-09T09:08:04.232Z,97.15
2022-10-09T09:09:04.239Z,97.25
2022-10-09T09:10:04.216Z,97.15
2022-10-09T09:11:04.277Z,96.95
2022-10-09T09:12:04.193Z,96.70
2022-10-09T09:13:04.216Z,97.21
2022-10-09T09:14:04.215Z,96.91
2022-10-09T09:15:04.155Z,96.49
2022-10-09T09:16:04.228Z,96.70
2022-10-09T09:17:05.386Z,96.19
2022-10-09T09:18:04.147Z,97.11
2022-10-09T09:19:04.149Z,96.45
2022-10-09T09:20:04.345Z,96.04
2022-10-09T09:21:04.116Z,96.04
2022-10-09T09:22:04.113Z,96.14
2022-10-09T09:23:04.090Z,95.12
2022-10-09T09:24:04.049Z,94.30
2022-10-09T09:25:04.024Z,94.56
2022-10-09T09:26:04.049Z,94.77
2022-10-09T09:27:04.048Z,94.26
2022-10-09T09:28:05.965Z,94.26
2022-10-09T09:29:04.008Z,94.67
2022-10-09T09:30:03.963Z,95.34
2022-10-09T09:31:03.991Z,94.82
2022-10-09T09:32:03.956Z,94.01
2022-10-09T09:33:03.920Z,94.62
2022-10-09T09:34:03.976Z,93.50
2022-10-09T09:35:03.891Z,93.15
2022-10-09T09:36:03.915Z,93.25
2022-10-09T09:37:03.883Z,92.02
2022-10-09T09:38:03.880Z,91.52
2022-10-09T09:41:04.846Z,92.74
2022-10-09T09:42:03.846Z,92.23
2022-10-09T09:43:05.026Z,91.52
2022-10-09T09:44:03.793Z,91.06
2022-10-09T09:45:03.810Z,90.55
2022-10-09T09:46:03.792Z,90.90
2022-10-09T09:47:03.765Z,91.98
2022-10-09T09:48:03.751Z,91.88
2022-10-09T09:49:08.557Z,92.29
2022-10-09T09:50:04.716Z,91.47
2022-10-09T09:51:27.460Z,91.67
2022-10-09T09:52:04.676Z,91.06
2022-10-09T09:53:03.883Z,92.04
2022-10-09T09:54:03.667Z,91.63
2022-10-09T09:55:03.636Z,91.02
2022-10-09T09:56:03.658Z,90.00
2022-10-09T09:57:22.024Z,90.16
2022-10-09T09:58:04.606Z,91.08
2022-10-09T09:59:03.604Z,90.47
2022-10-09T10:00:03.554Z,89.45
2022-10-09T10:01:03.651Z,91.28
2022-10-09T10:02:03.639Z,92.10
2022-10-09T10:03:03.519Z,90.77
2022-10-09T10:04:03.546Z,90.98
2022-10-09T10:05:03.507Z,92.41
2022-10-09T10:06:03.563Z,92.61
2022-10-09T10:07:03.507Z,91.69
2022-10-09T10:08:03.447Z,91.24
2022-10-09T10:09:03.515Z,90.53
2022-10-09T10:10:03.423Z,89.30
2022-10-09T10:11:03.453Z,89.92
2022-10-09T10:12:03.416Z,89.40
2022-10-09T10:13:03.401Z,89.36
2022-10-09T10:14:03.376Z,88.14
2022-10-09T10:15:03.384Z,87.94
2022-10-09T10:16:03.494Z,88.04
2022-10-09T10:17:03.417Z,86.30
2022-10-09T10:18:03.416Z,86.98
2022-10-09T10:19:03.350Z,86.98
2022-10-09T10:20:03.312Z,85.55
2022-10-09T10:21:03.306Z,85.45
2022-10-09T10:22:03.285Z,85.14
2022-10-09T10:23:04.180Z,84.23
2022-10-09T10:24:03.437Z,84.74
2022-10-09T10:25:03.239Z,85.25
2022-10-09T10:26:03.279Z,84.94
2022-10-09T10:27:03.242Z,84.94
2022-10-09T10:28:03.324Z,85.25
2022-10-09T10:29:03.220Z,84.23
2022-10-09T10:30:03.200Z,86.27
2022-10-09T10:31:03.259Z,84.53
2022-10-09T10:32:03.164Z,85.45
2022-10-09T10:33:03.162Z,84.39
2022-10-09T10:34:03.119Z,83.98
2022-10-09T10:35:03.132Z,84.19
2022-10-09T10:36:03.090Z,83.78
2022-10-09T10:37:03.543Z,83.98
2022-10-09T10:38:03.091Z,83.58
2022-10-09T10:39:03.091Z,83.51
2022-10-09T10:40:03.056Z,83.58
2022-10-09T10:41:03.053Z,82.46
2022-10-09T10:42:03.001Z,83.78
2022-10-09T10:43:03.006Z,83.48
2022-10-09T10:44:03.020Z,83.78
2022-10-09T10:45:03.000Z,84.19
2022-10-09T10:46:03.061Z,82.87
2022-10-09T10:47:02.964Z,83.07
2022-10-09T10:48:02.930Z,82.46
2022-10-09T10:49:02.945Z,83.07
2022-10-09T10:50:02.945Z,82.35
2022-10-09T10:51:03.004Z,81.74
2022-10-09T10:52:02.881Z,81.34
2022-10-09T10:53:02.885Z,82.21
2022-10-09T10:54:02.867Z,82.52
2022-10-09T10:55:02.873Z,82.87
2022-10-09T10:56:05.402Z,83.23
2022-10-09T10:57:02.965Z,82.52
2022-10-09T10:58:02.809Z,81.20
2022-10-09T10:59:03.786Z,82.73
2022-10-09T11:00:02.878Z,80.79
2022-10-09T11:01:02.837Z,81.40
2022-10-09T11:02:02.949Z,80.76
2022-10-09T11:03:02.829Z,80.85
2022-10-09T11:04:02.720Z,79.02
2022-10-09T11:05:02.698Z,79.53
2022-10-09T11:06:02.734Z,78.31
2022-10-09T11:07:02.756Z,77.36
2022-10-09T11:08:02.719Z,78.99
2022-10-09T11:09:03.855Z,78.58
2022-10-09T11:10:02.653Z,78.82
2022-10-09T11:11:02.621Z,79.23
2022-10-09T11:12:02.703Z,79.50
2022-10-09T11:13:02.983Z,79.80
2022-10-09T11:14:02.630Z,79.70
2022-10-09T11:15:02.574Z,79.90
2022-10-09T11:16:02.641Z,78.68
2022-10-09T11:17:02.580Z,78.78
2022-10-09T11:18:02.655Z,75.98
2022-10-09T11:19:02.551Z,78.92
2022-10-09T11:20:02.524Z,79.70
2022-10-09T11:21:02.520Z,79.39
2022-10-09T11:22:02.501Z,78.99
2022-10-09T11:23:02.976Z,77.26
2022-10-09T11:24:03.063Z,78.44
2022-10-09T11:25:02.483Z,78.14
2022-10-09T11:26:02.488Z,76.21
2022-10-09T11:27:03.746Z,77.73
2022-10-09T11:28:02.577Z,76.82
2022-10-09T11:29:02.422Z,77.94
2022-10-09T11:30:02.393Z,77.02
2022-10-09T11:31:02.371Z,77.33
2022-10-09T11:32:02.407Z,78.14
2022-10-09T11:33:02.387Z,76.72
2022-10-09T11:34:02.315Z,76.72
2022-10-09T11:35:02.334Z,76.21
2022-10-09T11:36:02.459Z,77.33
2022-10-09T11:37:02.331Z,74.48
2022-10-09T11:38:02.304Z,75.29
2022-10-09T11:39:02.266Z,75.19
2022-10-09T11:40:03.240Z,76.01
2022-10-09T11:41:06.447Z,76.10
2022-10-09T11:42:02.258Z,76.31
2022-10-09T11:43:02.261Z,76.41
2022-10-09T11:44:02.994Z,74.99
2022-10-09T11:45:02.274Z,75.36
2022-10-09T11:46:02.445Z,74.65
2022-10-09T11:47:02.897Z,74.85
2022-10-09T11:48:02.182Z,76.07
2022-10-09T11:49:02.117Z,78.00
2022-10-09T11:50:02.111Z,76.78
2022-10-09T11:51:02.173Z,77.49
2022-10-09T11:52:02.102Z,77.56
2022-10-09T11:53:02.108Z,77.25
2022-10-09T11:54:02.087Z,77.86
2022-10-09T11:55:02.107Z,77.15
2022-10-09T11:56:02.050Z,76.14
2022-10-09T11:57:05.161Z,74.71
2022-10-09T11:58:02.054Z,74.31
2022-10-09T11:59:02.171Z,76.14
2022-10-09T12:00:03.430Z,76.34
2022-10-09T12:01:03.095Z,77.45
2022-10-09T12:02:02.024Z,77.09
2022-10-09T12:03:02.090Z,76.07
2022-10-09T12:04:03.050Z,75.26
2022-10-09T12:05:02.012Z,74.34
2022-10-09T12:06:01.939Z,76.28
2022-10-09T12:07:01.907Z,75.16
2022-10-09T12:08:01.887Z,75.05
2022-10-09T12:09:02.560Z,75.97
2022-10-09T12:10:01.923Z,76.07
2022-10-09T12:11:02.733Z,77.09
2022-10-09T12:12:01.937Z,74.85
2022-10-09T12:13:02.833Z,72.62
2022-10-09T12:14:01.903Z,75.22
2022-10-09T12:15:01.873Z,75.83
2022-10-09T12:16:01.940Z,75.43
2022-10-09T12:17:01.788Z,75.12
2022-10-09T12:18:01.877Z,75.32
2022-10-09T12:19:01.754Z,72.89
2022-10-09T12:20:01.795Z,74.82
2022-10-09T12:21:01.743Z,74.41
2022-10-09T12:22:01.869Z,75.32
2022-10-09T12:23:24.759Z,76.64
2022-10-09T12:24:03.830Z,76.24
2022-10-09T12:25:01.751Z,75.93
2022-10-09T12:26:01.719Z,76.85
2022-10-09T12:27:01.644Z,75.32
2022-10-09T12:28:01.639Z,76.14
2022-10-09T12:29:01.629Z,74.24
2022-10-09T12:30:01.624Z,74.82
2022-10-09T12:31:01.833Z,73.90
2022-10-09T12:32:01.587Z,72.89
2022-10-09T12:33:01.545Z,74.82
2022-10-09T12:34:01.553Z,74.78
2022-10-09T12:35:01.555Z,73.87
2022-10-09T12:36:01.515Z,72.96
2022-10-09T12:37:01.564Z,72.04
2022-10-09T12:38:01.499Z,72.14
2022-10-09T12:39:02.379Z,72.52
2022-10-09T12:40:01.478Z,73.12
2022-10-09T12:41:01.473Z,71.84
2022-10-09T12:42:01.497Z,72.41
2022-10-09T12:43:01.423Z,71.94
2022-10-09T12:44:01.435Z,71.03
2022-10-09T12:45:01.421Z,73.46
2022-10-09T12:46:01.477Z,71.44
2022-10-09T12:47:01.512Z,71.73
2022-10-09T12:48:01.414Z,71.23
2022-10-09T12:49:01.366Z,71.36
2022-10-09T12:50:01.342Z,70.92
2022-10-09T12:51:01.299Z,71.97
2022-10-09T12:52:01.333Z,70.92
2022-10-09T12:53:01.277Z,72.85
2022-10-09T12:54:01.273Z,71.23